Time;durP1;ratioP1;P1;durP2;ratioP2;P2;SDS_P1;SDS_P2;PMS_P1;PMS_P2;Temp;Humidity;BMP_temperature;BMP_pressure;BME280_temperature;BME280_humidity;BME280_pressure;Samples;Min_cycle;Max_cycle;Signal;HPM_P1;HPM_P2
2021/06/08 00:04:51;;;;;;;4.88;3.58;;;23.10;97.70;;;;;;10337267;28;20046;-66
2021/06/08 00:09:53;;;;;;;6.38;3.72;;;23.10;97.50;;;;;;10331693;28;20092;-66
2021/06/08 00:14:55;;;;;;;8.13;3.47;;;23.20;97.40;;;;;;10330437;28;20129;-66
2021/06/08 00:19:58;;;;;;;4.35;3.38;;;23.10;97.50;;;;;;10330917;28;20145;-66
2021/06/08 00:25:00;;;;;;;5.15;3.33;;;23.10;97.40;;;;;;10330716;28;20130;-66
2021/06/08 00:30:03;;;;;;;6.57;3.35;;;23.10;97.30;;;;;;10330724;28;20133;-66
2021/06/08 00:35:06;;;;;;;5.03;3.50;;;23.10;97.40;;;;;;10330909;28;20133;-66
2021/06/08 00:40:08;;;;;;;4.95;3.50;;;23.00;97.30;;;;;;10330260;28;20052;-67
2021/06/08 00:45:11;;;;;;;4.43;3.35;;;23.10;97.10;;;;;;10330438;28;20128;-66
2021/06/08 00:50:13;;;;;;;4.63;3.40;;;23.20;96.70;;;;;;10329136;28;20050;-67
2021/06/08 00:55:15;;;;;;;5.55;3.40;;;23.20;96.60;;;;;;10329990;28;20133;-66
2021/06/08 01:00:18;;;;;;;4.93;3.63;;;23.20;96.30;;;;;;10330186;28;20474;-67
2021/06/08 01:05:20;;;;;;;7.72;3.55;;;23.10;96.40;;;;;;10328658;28;20126;-66
2021/06/08 01:10:22;;;;;;;5.47;3.67;;;23.30;96.00;;;;;;10339313;28;20133;-67
2021/06/08 01:15:24;;;;;;;5.13;3.20;;;23.30;95.70;;;;;;10327647;28;20465;-67
2021/06/08 01:20:26;;;;;;;6.00;3.08;;;23.30;95.60;;;;;;10327822;28;20055;-67
2021/06/08 01:25:28;;;;;;;4.60;3.47;;;23.30;95.30;;;;;;10327047;28;20053;-67
2021/06/08 01:30:30;;;;;;;4.53;3.10;;;23.30;95.30;;;;;;10327373;28;20137;-67
2021/06/08 01:35:33;;;;;;;7.30;3.20;;;23.30;95.20;;;;;;10327381;28;20129;-67
2021/06/08 01:40:35;;;;;;;6.18;3.15;;;23.30;95.10;;;;;;10326337;28;20053;-67
2021/06/08 01:45:39;;;;;;;4.88;3.13;;;23.40;95.10;;;;;;10327683;28;20141;-67
2021/06/08 01:50:42;;;;;;;4.40;3.13;;;23.30;95.10;;;;;;10326655;28;20149;-67
2021/06/08 01:55:46;;;;;;;5.05;3.25;;;23.30;95.10;;;;;;10326305;28;20812;-67
2021/06/08 02:00:58;;;;;;;4.95;3.17;;;23.30;95.00;;;;;;10326630;28;20141;-67
2021/06/08 02:06:09;;;;;;;5.35;3.10;;;23.30;95.10;;;;;;10335713;28;20129;-67
2021/06/08 02:11:15;;;;;;;4.47;3.00;;;23.30;94.90;;;;;;10332156;28;20563;-67
2021/06/08 02:16:28;;;;;;;4.20;3.00;;;23.30;95.00;;;;;;10332406;28;20056;-67
2021/06/08 02:21:34;;;;;;;4.22;3.00;;;23.30;94.80;;;;;;10359902;28;20053;-66
2021/06/08 02:26:40;;;;;;;4.22;2.88;;;23.30;94.80;;;;;;10333926;28;20050;-67
2021/06/08 02:31:43;;;;;;;4.25;3.08;;;23.30;94.50;;;;;;10330185;28;20153;-67
2021/06/08 02:36:46;;;;;;;4.82;3.10;;;23.30;94.80;;;;;;10330722;28;20133;-67
2021/06/08 02:41:49;;;;;;;3.60;2.80;;;23.30;94.50;;;;;;10330228;28;20129;-67
2021/06/08 02:46:52;;;;;;;5.78;3.00;;;23.30;94.30;;;;;;10331012;28;20149;-67
2021/06/08 02:51:55;;;;;;;4.55;2.90;;;23.40;94.20;;;;;;10330299;28;20061;-67
2021/06/08 02:56:58;;;;;;;4.55;3.00;;;23.40;94.10;;;;;;10331039;28;20137;-67
2021/06/08 03:02:04;;;;;;;4.07;3.00;;;23.40;94.10;;;;;;10331103;28;20052;-67
2021/06/08 03:07:09;;;;;;;3.63;2.72;;;23.40;94.00;;;;;;10323688;28;20062;-67
2021/06/08 03:12:14;;;;;;;3.90;2.95;;;23.40;93.90;;;;;;10323292;28;20722;-67
2021/06/08 03:17:18;;;;;;;3.80;2.92;;;23.40;93.90;;;;;;10339899;28;20078;-66
2021/06/08 03:22:22;;;;;;;5.05;3.08;;;23.40;93.80;;;;;;10343627;28;20145;-66
2021/06/08 03:27:27;;;;;;;3.58;2.80;;;23.40;93.50;;;;;;10323081;28;20082;-67
2021/06/08 03:32:30;;;;;;;4.20;2.78;;;23.40;93.50;;;;;;10322822;28;20137;-67
2021/06/08 03:37:32;;;;;;;4.40;2.80;;;23.40;93.40;;;;;;10323381;28;20059;-67
2021/06/08 03:42:36;;;;;;;3.58;2.80;;;23.40;93.20;;;;;;10328093;28;20464;-66
2021/06/08 03:47:38;;;;;;;3.45;2.90;;;23.50;93.20;;;;;;10330992;28;20090;-67
2021/06/08 03:52:42;;;;;;;3.95;3.10;;;23.40;93.00;;;;;;10329858;28;20499;-67
2021/06/08 03:57:49;;;;;;;3.60;2.90;;;23.50;92.90;;;;;;10330133;28;20089;-67
2021/06/08 04:02:52;;;;;;;3.17;2.55;;;23.50;93.00;;;;;;10333038;28;20424;-67
2021/06/08 04:07:55;;;;;;;4.85;2.72;;;23.50;92.90;;;;;;10350081;28;20104;-67
2021/06/08 04:13:01;;;;;;;4.55;2.95;;;23.50;92.90;;;;;;10335604;28;20129;-67
2021/06/08 04:18:08;;;;;;;3.65;2.88;;;23.50;92.60;;;;;;10343530;28;20144;-67
2021/06/08 04:23:10;;;;;;;4.05;2.85;;;23.50;92.60;;;;;;10348582;28;20104;-66
2021/06/08 04:28:12;;;;;;;3.67;2.92;;;23.50;92.40;;;;;;10333069;28;20124;-66
2021/06/08 04:33:19;;;;;;;3.90;2.97;;;23.50;92.60;;;;;;10329333;28;20141;-66
2021/06/08 04:38:22;;;;;;;5.95;2.97;;;23.40;92.70;;;;;;10330699;28;20154;-66
2021/06/08 04:43:25;;;;;;;4.63;3.10;;;23.40;92.60;;;;;;10330492;28;20830;-66
2021/06/08 04:48:27;;;;;;;4.60;3.00;;;23.40;92.40;;;;;;10329545;28;20046;-66
2021/06/08 04:53:29;;;;;;;4.85;3.08;;;23.30;92.40;;;;;;10329828;28;20054;-66
2021/06/08 04:58:31;;;;;;;4.22;2.90;;;23.40;92.50;;;;;;10330176;28;20094;-66
2021/06/08 05:03:47;;;;;;;4.25;2.90;;;23.30;92.40;;;;;;10334305;28;20093;-66
2021/06/08 05:08:54;;;;;;;4.20;2.85;;;23.40;92.50;;;;;;10329941;28;20050;-66
2021/06/08 05:13:57;;;;;;;3.92;2.92;;;23.30;92.40;;;;;;10329809;28;20089;-66
2021/06/08 05:19:00;;;;;;;4.53;3.03;;;23.30;92.30;;;;;;10329513;28;20097;-66
2021/06/08 05:24:04;;;;;;;5.70;3.03;;;23.30;92.30;;;;;;10328967;28;20124;-66
2021/06/08 05:29:07;;;;;;;5.60;3.20;;;23.40;92.20;;;;;;10329383;28;20082;-66
2021/06/08 05:34:13;;;;;;;4.55;2.92;;;23.40;92.10;;;;;;10328838;28;20060;-66
2021/06/08 05:39:15;;;;;;;3.75;2.70;;;23.40;92.00;;;;;;10329028;28;20082;-66
2021/06/08 05:44:17;;;;;;;3.58;3.00;;;23.30;92.00;;;;;;10327746;28;20073;-66
2021/06/08 05:49:19;;;;;;;3.53;2.85;;;23.30;91.90;;;;;;10328297;28;20581;-66
2021/06/08 05:54:21;;;;;;;3.42;2.80;;;23.30;92.00;;;;;;10327703;28;20081;-66
2021/06/08 05:59:27;;;;;;;3.67;2.90;;;23.30;91.90;;;;;;10327724;28;20097;-66
2021/06/08 06:04:30;;;;;;;3.63;2.65;;;23.30;91.90;;;;;;10341178;28;20535;-66
2021/06/08 06:09:32;;;;;;;3.85;2.78;;;23.30;92.00;;;;;;10325977;28;20133;-66
2021/06/08 06:14:36;;;;;;;4.25;2.95;;;23.30;91.70;;;;;;10327247;28;20432;-66
2021/06/08 06:19:39;;;;;;;4.20;2.90;;;23.30;91.80;;;;;;10295601;28;20316;-66
2021/06/08 06:24:41;;;;;;;3.65;2.85;;;23.40;91.60;;;;;;10326426;28;20462;-67
2021/06/08 06:29:44;;;;;;;6.55;3.00;;;23.40;91.60;;;;;;10317152;28;20089;-67
2021/06/08 06:34:46;;;;;;;4.97;3.13;;;23.40;92.10;;;;;;10325711;28;20082;-67
2021/06/08 06:39:49;;;;;;;4.47;3.35;;;23.40;92.10;;;;;;10324017;28;20183;-67
2021/06/08 06:44:54;;;;;;;3.65;2.92;;;23.50;92.20;;;;;;10322780;28;20081;-67
2021/06/08 06:49:56;;;;;;;5.25;3.03;;;23.40;92.30;;;;;;10324111;28;20475;-67
2021/06/08 06:54:59;;;;;;;4.80;3.20;;;23.50;92.40;;;;;;10322793;28;20073;-67
2021/06/08 07:00:02;;;;;;;3.90;3.20;;;23.50;92.50;;;;;;10323612;28;20085;-67
2021/06/08 07:05:06;;;;;;;3.90;2.95;;;23.40;92.30;;;;;;10325495;28;20178;-66
2021/06/08 07:10:14;;;;;;;5.30;3.25;;;23.50;92.20;;;;;;10323521;28;20081;-67
2021/06/08 07:15:23;;;;;;;5.65;2.90;;;23.50;92.20;;;;;;10304984;28;20077;-66
2021/06/08 07:20:27;;;;;;;3.70;2.88;;;23.50;91.90;;;;;;10311238;28;20790;-67
2021/06/08 07:25:36;;;;;;;4.38;3.17;;;23.60;91.80;;;;;;10322927;28;20138;-67
2021/06/08 07:30:42;;;;;;;5.22;3.40;;;23.60;91.90;;;;;;10293272;28;20121;-67
2021/06/08 07:35:55;;;;;;;4.22;3.53;;;23.60;91.80;;;;;;10284062;28;20058;-67
2021/06/08 07:41:01;;;;;;;6.78;3.63;;;23.60;91.70;;;;;;10322894;28;20480;-67
2021/06/08 07:46:10;;;;;;;5.68;4.65;;;23.60;91.70;;;;;;10323290;28;20496;-67
2021/06/08 07:51:13;;;;;;;5.50;4.05;;;23.50;91.50;;;;;;10322966;28;20073;-67
2021/06/08 07:56:15;;;;;;;5.45;3.80;;;23.50;91.40;;;;;;10323153;28;20058;-67
2021/06/08 08:01:20;;;;;;;6.28;4.63;;;23.50;91.40;;;;;;10318451;28;20156;-67
2021/06/08 08:06:24;;;;;;;4.88;4.03;;;23.50;91.40;;;;;;10312034;28;20121;-67
2021/06/08 08:11:28;;;;;;;5.53;3.85;;;23.60;91.30;;;;;;10322229;28;20085;-66
2021/06/08 08:16:31;;;;;;;5.47;3.90;;;23.60;91.10;;;;;;10322595;28;20085;-66
2021/06/08 08:21:33;;;;;;;4.93;3.35;;;23.60;91.00;;;;;;10320804;28;20050;-66
2021/06/08 08:26:36;;;;;;;4.00;3.20;;;23.60;90.80;;;;;;10323312;28;20483;-66
2021/06/08 08:31:38;;;;;;;4.32;3.42;;;23.70;90.60;;;;;;10301145;28;20145;-64
2021/06/08 08:36:40;;;;;;;5.20;3.63;;;23.60;90.60;;;;;;10328511;28;20423;-64
2021/06/08 08:41:43;;;;;;;6.10;3.60;;;23.70;90.60;;;;;;10314519;28;20172;-64
2021/06/08 08:46:46;;;;;;;4.05;3.30;;;23.70;90.50;;;;;;10353781;28;20081;-64
2021/06/08 08:51:51;;;;;;;5.72;3.92;;;23.70;90.40;;;;;;10288051;28;20504;-67
2021/06/08 08:56:53;;;;;;;6.68;3.50;;;23.80;90.60;;;;;;10365090;28;20129;-65
2021/06/08 09:01:57;;;;;;;7.38;3.65;;;23.80;90.40;;;;;;10355074;28;20484;-66
2021/06/08 09:06:59;;;;;;;6.50;4.10;;;23.80;90.60;;;;;;10297982;28;20209;-64
2021/06/08 09:12:04;;;;;;;6.70;3.83;;;23.80;90.30;;;;;;10355307;28;20137;-66
2021/06/08 09:17:10;;;;;;;5.20;4.05;;;23.80;90.20;;;;;;10337775;28;20145;-65
2021/06/08 09:22:14;;;;;;;5.47;4.00;;;23.80;90.20;;;;;;10332209;28;20108;-65
2021/06/08 09:27:16;;;;;;;7.90;4.10;;;23.80;90.20;;;;;;10327539;28;20121;-65
2021/06/08 09:32:18;;;;;;;8.15;4.30;;;23.80;90.10;;;;;;10322258;28;20260;-65
2021/06/08 09:37:30;;;;;;;8.77;3.90;;;23.80;90.20;;;;;;10326483;28;20057;-65
2021/06/08 09:42:32;;;;;;;5.30;4.32;;;23.80;90.10;;;;;;10326021;28;20074;-64
2021/06/08 09:47:42;;;;;;;5.68;3.80;;;23.80;90.20;;;;;;10306285;28;20050;-64
2021/06/08 09:52:49;;;;;;;5.07;4.00;;;23.90;89.90;;;;;;10326342;28;20054;-64
2021/06/08 09:57:51;;;;;;;4.57;3.83;;;23.90;89.80;;;;;;10326621;28;20058;-65
2021/06/08 10:02:53;;;;;;;4.63;3.78;;;23.90;89.70;;;;;;10338305;28;20555;-64
2021/06/08 10:07:58;;;;;;;6.10;4.63;;;23.90;89.50;;;;;;10341348;28;20133;-64
2021/06/08 10:13:05;;;;;;;5.10;4.40;;;23.90;89.20;;;;;;10331338;28;20137;-64
2021/06/08 10:18:09;;;;;;;8.02;4.45;;;23.90;88.90;;;;;;10314503;28;20487;-64
2021/06/08 10:23:20;;;;;;;5.78;4.47;;;23.80;88.60;;;;;;10297595;28;20130;-64
2021/06/08 10:28:24;;;;;;;10.63;4.88;;;23.90;88.80;;;;;;10324544;28;20089;-64
2021/06/08 10:33:27;;;;;;;6.65;4.28;;;23.90;88.40;;;;;;10299742;28;20094;-64
2021/06/08 10:38:45;;;;;;;4.65;4.07;;;23.90;88.10;;;;;;10324520;28;20968;-64
2021/06/08 10:43:47;;;;;;;4.97;3.88;;;23.90;87.90;;;;;;10317104;28;20516;-64
2021/06/08 10:48:51;;;;;;;5.47;3.83;;;23.90;88.00;;;;;;10324320;28;20057;-64
2021/06/08 10:53:56;;;;;;;5.57;4.28;;;24.00;87.80;;;;;;10324110;28;20142;-64
2021/06/08 10:58:59;;;;;;;6.38;4.20;;;24.00;87.70;;;;;;10315288;28;20055;-63
2021/06/08 11:04:06;;;;;;;4.88;3.97;;;24.00;87.80;;;;;;10322455;28;20134;-64
2021/06/08 11:09:14;;;;;;;5.95;4.35;;;24.00;87.30;;;;;;10323980;28;20085;-64
2021/06/08 11:19:45;;;;;;;5.30;4.22;;;24.00;87.50;;;;;;10322947;28;20070;-65
2021/06/08 11:24:49;;;;;;;7.32;4.40;;;24.00;87.50;;;;;;10323012;28;20684;-63
2021/06/08 11:30:00;;;;;;;5.88;4.30;;;24.00;87.50;;;;;;10320315;28;20133;-64
2021/06/08 11:35:29;;;;;;;4.88;4.13;;;24.00;86.90;;;;;;10303583;28;20089;-64
2021/06/08 11:40:40;;;;;;;5.47;4.35;;;24.00;86.70;;;;;;10322626;28;20124;-63
2021/06/08 11:45:46;;;;;;;5.43;4.30;;;24.00;86.60;;;;;;10329277;28;20078;-63
2021/06/08 11:50:48;;;;;;;5.28;4.40;;;24.00;86.40;;;;;;10321222;28;20129;-63
2021/06/08 11:56:05;;;;;;;5.35;4.38;;;24.00;86.40;;;;;;10322599;28;20058;-64
2021/06/08 12:01:28;;;;;;;5.78;4.43;;;24.00;86.00;;;;;;10319382;28;20133;-64
2021/06/08 12:07:07;;;;;;;6.57;4.57;;;24.00;86.50;;;;;;10322602;28;20042;-64
2021/06/08 12:12:11;;;;;;;7.97;5.00;;;24.10;85.90;;;;;;10349067;28;20169;-64
2021/06/08 12:17:13;;;;;;;6.82;5.03;;;24.00;85.60;;;;;;10329640;28;20144;-64
2021/06/08 12:22:30;;;;;;;6.05;4.50;;;24.00;85.40;;;;;;10307083;28;20089;-64
2021/06/08 12:27:42;;;;;;;4.68;4.13;;;24.00;85.40;;;;;;10327362;28;20074;-64
2021/06/08 12:32:52;;;;;;;5.57;4.22;;;24.10;85.10;;;;;;10327903;28;20148;-64
2021/06/08 12:38:20;;;;;;;8.85;4.10;;;24.10;85.10;;;;;;10322626;28;20088;-64
2021/06/08 12:43:23;;;;;;;6.20;4.22;;;24.20;84.70;;;;;;10319640;28;20491;-64
2021/06/08 12:48:26;;;;;;;5.60;4.30;;;24.10;84.60;;;;;;10314810;28;20137;-64
2021/06/08 12:53:28;;;;;;;4.18;3.63;;;24.10;84.50;;;;;;10307270;28;20058;-64
2021/06/08 12:58:34;;;;;;;4.43;3.80;;;24.10;84.30;;;;;;10353878;28;20081;-64
2021/06/08 13:03:46;;;;;;;4.75;3.92;;;24.20;84.20;;;;;;10328961;28;20050;-64
2021/06/08 13:08:49;;;;;;;5.25;3.70;;;24.20;83.90;;;;;;10312163;28;20058;-64
2021/06/08 13:13:52;;;;;;;4.82;3.70;;;24.10;83.80;;;;;;10315072;28;20109;-64
2021/06/08 13:18:55;;;;;;;5.47;3.60;;;24.10;83.90;;;;;;10328665;28;20089;-64
2021/06/08 13:24:15;;;;;;;6.50;4.00;;;24.20;83.60;;;;;;10327277;28;20562;-64
2021/06/08 13:29:24;;;;;;;5.88;3.72;;;24.10;83.90;;;;;;10300125;28;20077;-64
2021/06/08 13:34:29;;;;;;;4.80;3.40;;;24.10;83.20;;;;;;10322548;28;20142;-63
2021/06/08 13:39:41;;;;;;;4.65;3.63;;;24.10;83.50;;;;;;10324612;28;20081;-63
2021/06/08 13:45:00;;;;;;;3.97;3.33;;;24.10;83.40;;;;;;10318955;28;20078;-64
2021/06/08 13:50:06;;;;;;;7.25;3.70;;;24.20;83.40;;;;;;10320143;28;20046;-64
2021/06/08 13:55:11;;;;;;;4.88;3.20;;;24.20;83.50;;;;;;10321132;28;20077;-64
2021/06/08 14:00:23;;;;;;;4.47;3.17;;;24.10;83.80;;;;;;10334259;28;20129;-64
2021/06/08 14:05:27;;;;;;;5.38;3.30;;;24.20;83.30;;;;;;10348303;28;20053;-63
2021/06/08 14:10:30;;;;;;;4.65;3.50;;;24.20;83.10;;;;;;10336416;28;20095;-64
2021/06/08 14:15:49;;;;;;;7.07;3.78;;;24.20;82.90;;;;;;10312973;28;20074;-64
2021/06/08 14:20:51;;;;;;;4.63;3.28;;;24.20;83.10;;;;;;10324729;28;20112;-64
2021/06/08 14:25:54;;;;;;;4.13;3.17;;;24.20;83.50;;;;;;10322951;28;20472;-64
2021/06/08 14:30:56;;;;;;;4.35;3.20;;;24.20;84.00;;;;;;10324521;28;20100;-64
2021/06/08 14:35:58;;;;;;;4.05;3.20;;;24.20;84.10;;;;;;10321060;28;20082;-64
2021/06/08 14:41:00;;;;;;;5.10;3.40;;;24.10;84.00;;;;;;10315344;28;20050;-63
2021/06/08 14:46:03;;;;;;;5.43;3.25;;;24.20;83.90;;;;;;10310361;28;20050;-64
2021/06/08 14:51:05;;;;;;;4.38;3.20;;;24.20;83.70;;;;;;10311206;28;20065;-64
2021/06/08 14:56:08;;;;;;;5.15;3.10;;;24.20;83.60;;;;;;10323636;28;20129;-64
2021/06/08 15:01:11;;;;;;;4.00;3.10;;;24.20;83.20;;;;;;10323660;28;20149;-64
2021/06/08 15:06:13;;;;;;;6.05;3.35;;;24.20;83.00;;;;;;10317545;28;20046;-64
2021/06/08 15:11:15;;;;;;;5.57;3.13;;;24.30;82.80;;;;;;10314537;28;20063;-64
2021/06/08 15:16:17;;;;;;;4.10;2.83;;;24.20;82.40;;;;;;10323552;28;20085;-64
2021/06/08 15:21:19;;;;;;;3.78;2.80;;;24.20;81.80;;;;;;10321481;28;20109;-63
2021/06/08 15:26:21;;;;;;;5.55;3.30;;;24.10;81.90;;;;;;10322506;28;20070;-64
2021/06/08 15:31:23;;;;;;;7.25;3.00;;;24.20;82.10;;;;;;10322977;28;20103;-64
2021/06/08 15:36:25;;;;;;;4.63;3.05;;;24.10;82.10;;;;;;10323173;28;20361;-64
2021/06/08 15:41:27;;;;;;;7.20;3.20;;;24.20;82.00;;;;;;10327326;28;20094;-64
2021/06/08 15:46:35;;;;;;;5.03;3.20;;;24.20;81.90;;;;;;10331540;28;20551;-64
2021/06/08 15:51:38;;;;;;;4.60;2.67;;;24.20;82.20;;;;;;10330596;28;20546;-64
2021/06/08 15:56:40;;;;;;;6.57;3.40;;;24.20;82.10;;;;;;10330417;28;20740;-63
2021/06/08 16:01:42;;;;;;;4.20;3.10;;;24.30;82.10;;;;;;10332431;28;20131;-64
2021/06/08 16:06:44;;;;;;;4.90;2.80;;;24.30;82.20;;;;;;10365852;28;20460;-65
2021/06/08 16:12:08;;;;;;;10.18;3.33;;;24.30;82.40;;;;;;10330992;28;20058;-64
2021/06/08 16:17:12;;;;;;;6.78;3.22;;;24.30;83.30;;;;;;10330378;28;20133;-65
2021/06/08 16:22:16;;;;;;;4.60;3.22;;;24.30;82.80;;;;;;10326942;28;20134;-64
2021/06/08 16:27:18;;;;;;;4.90;3.00;;;24.40;82.40;;;;;;10325167;28;20479;-64
2021/06/08 16:32:20;;;;;;;5.75;2.97;;;24.40;81.90;;;;;;10327898;28;20420;-64
2021/06/08 16:37:22;;;;;;;4.10;2.92;;;24.40;81.60;;;;;;10337069;28;20089;-64
2021/06/08 16:42:24;;;;;;;8.07;3.33;;;24.40;81.50;;;;;;10325301;28;20085;-64
2021/06/08 16:47:26;;;;;;;4.57;3.13;;;24.40;81.80;;;;;;10319571;28;20081;-64
2021/06/08 16:57:50;;;;;;;3.58;2.72;;;24.40;81.70;;;;;;10331656;28;20054;-64
2021/06/08 17:02:53;;;;;;;6.43;3.13;;;24.40;81.50;;;;;;10339029;28;20060;-64
2021/06/08 17:07:55;;;;;;;4.40;3.03;;;24.40;81.80;;;;;;10329078;28;20105;-64
2021/06/08 17:12:58;;;;;;;4.00;3.00;;;24.40;81.70;;;;;;10326437;28;20082;-64
2021/06/08 17:18:00;;;;;;;5.75;3.00;;;24.40;82.10;;;;;;10324304;28;20511;-63
2021/06/08 17:23:02;;;;;;;5.30;3.30;;;24.40;82.70;;;;;;10328892;28;20091;-63
2021/06/08 17:28:05;;;;;;;4.28;3.33;;;24.50;82.00;;;;;;10327878;28;20125;-63
2021/06/08 17:33:09;;;;;;;5.50;3.20;;;24.60;83.10;;;;;;10327968;28;20169;-63
2021/06/08 17:38:11;;;;;;;4.63;3.17;;;24.50;84.10;;;;;;10328104;28;20086;-63
2021/06/08 17:43:13;;;;;;;5.53;3.20;;;24.50;84.30;;;;;;10332471;28;20545;-63
2021/06/08 17:48:15;;;;;;;6.72;3.10;;;24.40;84.80;;;;;;10333050;28;20088;-63
2021/06/08 17:53:17;;;;;;;5.50;2.95;;;24.40;85.00;;;;;;10327517;28;20065;-63
2021/06/08 17:58:19;;;;;;;4.80;3.00;;;24.40;84.80;;;;;;10327249;28;20085;-63
2021/06/08 18:03:21;;;;;;;4.47;3.13;;;24.30;84.60;;;;;;10326078;28;20488;-63
2021/06/08 18:08:24;;;;;;;5.32;3.30;;;24.40;84.40;;;;;;10326367;28;20125;-65
2021/06/08 18:13:26;;;;;;;6.78;3.13;;;24.30;88.90;;;;;;10311506;28;20089;-65
2021/06/08 18:18:38;;;;;;;6.80;3.10;;;24.40;84.60;;;;;;10318423;28;20093;-67
2021/06/08 18:23:42;;;;;;;7.00;3.28;;;24.40;84.10;;;;;;10315903;28;20465;-62
2021/06/08 18:28:44;;;;;;;6.13;3.10;;;24.50;88.00;;;;;;10315441;28;20125;-62
2021/06/08 18:33:48;;;;;;;7.50;3.70;;;24.70;82.70;;;;;;10326719;28;20057;-62
2021/06/08 18:38:50;;;;;;;12.25;3.72;;;24.60;81.40;;;;;;10325606;28;20088;-62
2021/06/08 18:43:53;;;;;;;6.00;3.47;;;24.50;81.50;;;;;;10318076;28;20046;-62
2021/06/08 18:48:55;;;;;;;6.70;3.95;;;24.50;81.70;;;;;;10325746;28;20050;-62
2021/06/08 18:53:57;;;;;;;8.75;4.68;;;24.50;82.20;;;;;;10324496;28;20136;-62
2021/06/08 18:59:00;;;;;;;8.00;3.80;;;24.50;89.00;;;;;;10323801;28;20085;-63
2021/06/08 19:04:02;;;;;;;7.45;3.50;;;24.70;82.30;;;;;;10324474;28;20049;-62
2021/06/08 19:09:05;;;;;;;8.95;3.42;;;24.60;82.70;;;;;;10321906;28;20484;-63
2021/06/08 19:14:07;;;;;;;5.30;3.20;;;24.50;82.30;;;;;;10317044;28;20046;-62
2021/06/08 19:19:09;;;;;;;5.13;3.33;;;24.40;82.50;;;;;;10324879;28;20477;-62
2021/06/08 19:24:11;;;;;;;4.70;3.10;;;24.40;82.20;;;;;;10324738;28;20121;-62
2021/06/08 19:29:13;;;;;;;5.35;3.30;;;24.40;82.70;;;;;;10324717;28;20046;-62
2021/06/08 19:34:15;;;;;;;4.25;3.38;;;24.40;82.50;;;;;;10322217;28;20620;-62
2021/06/08 19:39:18;;;;;;;4.28;3.20;;;24.30;82.80;;;;;;10322997;28;20060;-62
2021/06/08 19:44:20;;;;;;;6.20;3.33;;;24.30;83.00;;;;;;10326803;28;20046;-62
2021/06/08 19:49:22;;;;;;;6.43;3.30;;;24.20;83.20;;;;;;10328747;28;20104;-62
2021/06/08 19:54:24;;;;;;;5.60;2.92;;;24.20;83.10;;;;;;10323783;28;20105;-62
2021/06/08 19:59:26;;;;;;;12.57;3.60;;;24.20;83.20;;;;;;10320427;28;20109;-63
2021/06/08 20:04:28;;;;;;;9.77;3.42;;;24.20;83.00;;;;;;10332892;28;20132;-62
2021/06/08 20:09:30;;;;;;;5.05;3.05;;;24.20;83.00;;;;;;10347707;28;20089;-63
2021/06/08 20:14:32;;;;;;;7.07;2.97;;;24.40;83.50;;;;;;10322487;28;20058;-63
2021/06/08 20:19:34;;;;;;;5.13;3.20;;;24.30;82.60;;;;;;10324371;28;20100;-63
2021/06/08 20:24:38;;;;;;;5.63;3.10;;;24.20;82.90;;;;;;10329394;28;20078;-63
2021/06/08 20:29:43;;;;;;;5.00;3.00;;;24.20;83.10;;;;;;10332201;28;20134;-63
2021/06/08 20:34:45;;;;;;;5.78;3.20;;;24.20;83.20;;;;;;10331356;28;20895;-63
2021/06/08 20:39:47;;;;;;;5.93;3.13;;;24.10;83.20;;;;;;10331455;28;20496;-63
2021/06/08 20:44:49;;;;;;;6.78;3.10;;;24.10;83.00;;;;;;10317671;28;20073;-63
2021/06/08 20:49:51;;;;;;;5.32;3.00;;;24.20;83.10;;;;;;10330306;28;20484;-63
2021/06/08 20:54:53;;;;;;;5.18;3.22;;;24.20;83.00;;;;;;10330168;28;20475;-64
2021/06/08 20:59:55;;;;;;;8.07;3.40;;;24.10;83.20;;;;;;10328847;28;20484;-63
2021/06/08 21:04:57;;;;;;;8.23;3.20;;;24.10;83.20;;;;;;10335309;28;20475;-64
2021/06/08 21:09:59;;;;;;;4.85;3.13;;;24.10;83.10;;;;;;10329897;28;20054;-63
2021/06/08 21:15:01;;;;;;;6.43;3.05;;;24.00;83.00;;;;;;10329565;28;20054;-63
2021/06/08 21:20:04;;;;;;;5.72;3.30;;;24.00;82.90;;;;;;10329730;28;20081;-63
2021/06/08 21:25:07;;;;;;;4.78;3.10;;;24.10;82.90;;;;;;10329295;28;20081;-63
2021/06/08 21:30:10;;;;;;;9.57;3.35;;;24.10;82.90;;;;;;10329786;28;20129;-64
2021/06/08 21:35:12;;;;;;;4.82;3.20;;;24.00;82.70;;;;;;10329091;28;20085;-64
2021/06/08 21:40:14;;;;;;;7.25;3.22;;;24.00;82.70;;;;;;10329176;28;20141;-64
2021/06/08 21:45:16;;;;;;;6.30;3.30;;;24.00;83.30;;;;;;10328953;28;20157;-63
2021/06/08 21:50:18;;;;;;;6.35;3.20;;;24.00;82.70;;;;;;10328571;28;20125;-63
2021/06/08 21:55:20;;;;;;;4.85;3.22;;;24.00;82.20;;;;;;10327057;28;20073;-63
2021/06/08 22:00:23;;;;;;;6.30;3.25;;;24.00;82.20;;;;;;10328092;28;20081;-64
2021/06/08 22:05:25;;;;;;;5.57;3.15;;;24.00;82.60;;;;;;10333387;28;20081;-63
2021/06/08 22:10:28;;;;;;;4.95;3.10;;;24.00;83.20;;;;;;10327702;28;20105;-63
2021/06/08 22:15:32;;;;;;;5.93;3.13;;;24.00;82.70;;;;;;10327175;28;20154;-63
2021/06/08 22:20:34;;;;;;;4.35;3.03;;;24.00;82.70;;;;;;10326901;28;20054;-65
2021/06/08 22:25:36;;;;;;;4.97;2.97;;;24.00;82.80;;;;;;10334944;28;20129;-64
2021/06/08 22:30:39;;;;;;;3.60;2.78;;;24.10;82.70;;;;;;10326781;28;20050;-63
2021/06/08 22:35:42;;;;;;;4.70;2.85;;;24.10;82.50;;;;;;10325967;28;20138;-64
2021/06/08 22:40:44;;;;;;;5.05;2.95;;;24.10;82.50;;;;;;10327108;28;20101;-64
2021/06/08 22:45:46;;;;;;;5.35;3.13;;;24.10;82.30;;;;;;10326021;28;20088;-63
2021/06/08 22:50:48;;;;;;;5.32;3.08;;;24.10;82.20;;;;;;10325707;28;20081;-64
2021/06/08 22:55:50;;;;;;;3.65;2.80;;;24.10;82.10;;;;;;10326181;28;20085;-64
2021/06/08 23:00:52;;;;;;;4.20;2.90;;;24.00;82.00;;;;;;10326578;28;20120;-64
2021/06/08 23:05:54;;;;;;;6.57;3.17;;;24.10;82.10;;;;;;10362192;28;20495;-64
2021/06/08 23:10:56;;;;;;;4.10;2.95;;;24.00;82.00;;;;;;10328086;28;20121;-64
2021/06/08 23:15:58;;;;;;;5.30;2.90;;;24.00;81.80;;;;;;10325875;28;20133;-64
2021/06/08 23:21:00;;;;;;;4.47;2.90;;;24.10;81.80;;;;;;10325198;28;20184;-63
2021/06/08 23:26:02;;;;;;;4.95;2.70;;;24.00;81.70;;;;;;10324546;28;20133;-64
2021/06/08 23:31:06;;;;;;;6.85;2.80;;;24.10;81.80;;;;;;10324629;28;20082;-64
2021/06/08 23:36:08;;;;;;;4.68;2.78;;;24.00;81.60;;;;;;10325863;28;20082;-65
2021/06/08 23:41:10;;;;;;;3.55;2.58;;;24.00;81.60;;;;;;10330000;28;20150;-64
2021/06/08 23:46:12;;;;;;;3.55;2.45;;;24.00;81.60;;;;;;10325928;28;20137;-64
2021/06/08 23:51:14;;;;;;;4.32;2.83;;;24.00;81.50;;;;;;10325391;28;20053;-63
2021/06/08 23:56:17;;;;;;;6.43;2.83;;;24.00;81.00;;;;;;10323003;28;20161;-63
